Tiempo atmosférico en la estación meteorológica de Belmonte, Cuenca (800 m.)



Fecha
DESCASC
Temp. máxima en grados centígrados (hora)
DESCASC
Temp. mínima en grados centígrados (hora)
DESCASC
Temp. media en grados centígrados
DESCASC
Racha de viento máxima en m/sg (hora)
DESCASC
Velocidad máxima media en intervalos de 10 minutos(hora)
DESCASC
Precipitaciones diarias en mm
DESCASC
Precipitaciones de 00:00 a 06:00 en mm
DESCASC
Precipitaciones de 06:00 a 12:00 en mm
DESCASC
Precipitaciones de 12:00 a 18:00 en mm
DESCASC
Precipitaciones de 18:00 a 24:00 en mm
DESCASC
15-08-2019 36.2 (16:10) 18.1 (07:30) 27.2 6.11 (16:00) 3.61 (10:10) -- -- -- -- --
14-08-2019 34 (17:40) 17.3 (00:00) 25.6 7.5 (02:00) 4.17 (02:40) -- -- -- -- --
13-08-2019 31.3 (17:20) 18.3 (00:00) 24.8 8.89 (04:40) 4.72 (04:10) -- -- -- -- --
12-08-2019 30 (16:30) 15.9 (00:00) 22.9 8.61 (09:50) 4.17 (10:00) -- -- -- -- --
11-08-2019 32.5 (17:20) 16.8 (00:00) 24.6 10 (16:50) 4.72 (16:50) -- -- -- -- --
10-08-2019 34 (18:00) 19.2 (00:00) 26.6 8.61 (15:50) 3.61 (16:50) -- -- -- -- --
09-08-2019 34.7 (16:20) 18.6 (00:00) 26.7 11.11 (17:10) 5.28 (21:20) -- -- -- -- --
08-08-2019 34.8 (17:10) 16.9 (00:00) 25.8 8.61 (15:40) 3.33 (16:00) -- -- -- -- --
07-08-2019 33.8 (15:30) 18.2 (00:00) 26 10.83 (17:20) 5 (17:20) -- -- -- -- --
06-08-2019 36.5 (18:50) 18 (00:00) 27.3 9.17 (15:10) 3.89 (15:40) -- -- -- -- --
05-08-2019 37 (17:20) 19 (00:00) 28 8.33 (17:10) 3.06 (16:40) -- -- -- -- --
04-08-2019 36.6 (17:30) 19.6 (00:00) 28.1 7.22 (16:10) 3.06 (16:00) -- -- -- -- --
03-08-2019 36.6 (17:40) 20 (00:00) 28.3 9.72 (03:40) 6.11 (04:10) -- -- -- -- --
02-08-2019 36.3 (18:40) 19.2 (00:00) 27.8 7.5 (23:50) 4.72 (23:50) -- -- -- -- --
01-08-2019 35 (17:30) 17.6 (00:00) 26.3 14.44 (01:00) 7.78 (00:20) -- -- -- -- --
31-07-2019 31.5 (17:00) 19.5 (00:00) 25.5 15.56 (23:20) 8.61 (12:20) -- -- -- -- --
30-07-2019 33.7 (16:50) 17 (00:00) 25.4 9.17 (17:00) 5.56 (23:59) -- -- -- -- --
29-07-2019 34 (18:20) 17.3 (00:00) 25.6 10.83 (17:00) 4.17 (16:50) -- -- -- -- --
28-07-2019 30.7 (18:10) 14.9 (00:00) 22.8 11.11 (16:30) 2.78 (14:30) -- -- -- -- --
27-07-2019 28.5 (16:50) 15.5 (00:00) 22 11.94 (17:20) 5.56 (17:20) -- -- -- -- --
26-07-2019 32.8 (17:30) 21.3 (00:00) 27 12.22 (16:50) 4.72 (14:30) -- -- -- -- --
25-07-2019 37.1 (18:20) 22.1 (00:00) 29.6 12.22 (01:10) 6.67 (01:10) -- -- -- -- --
24-07-2019 36.8 (16:50) 23.2 (00:00) 30 11.67 (12:30) 6.39 (21:30) -- -- -- -- --
23-07-2019 36.3 (17:20) 22.5 (00:00) 29.4 13.33 (12:50) 7.5 (16:20) -- -- -- -- --
22-07-2019 35.6 (18:00) 21.5 (00:00) 28.5 14.72 (18:10) 7.78 (19:10) -- -- -- -- --
21-07-2019 35.8 (16:40) 22.1 (00:00) 28.9 14.44 (02:30) 7.5 (02:30) -- -- -- -- --
20-07-2019 37.3 (18:30) 20.6 (00:00) 28.9 12.22 (23:59) 7.5 (23:50) -- -- -- -- --
19-07-2019 36.1 (16:50) 20.9 (00:00) 28.5 11.67 (23:40) 6.39 (23:20) -- -- -- -- --

Gráficas

Temp. máximas Temp. mínimas Temp. medias Precipitaciones Rachas de viento máximas Velocidades máximas media en intervalos de 10 minutos

Datos horarios

Fecha y hora oficial Temperatura (ºC) Velocidad del viento (km/h) Dirección del viento Racha (km/h) Dirección de racha Precipitación (mm) Presión (hPa) Tendencia (hPa) Humedad (%)
2019-08-17 23:00:00 29 4 Nordeste 11 Noroeste 0 -- -- 26
2019-08-17 22:00:00 31.5 2 Sudeste 8 Oeste 0 -- -- 23
2019-08-17 21:00:00 33.4 4 Oeste 15 Oeste 0 -- -- 21
2019-08-17 20:00:00 35.2 10 Oeste 24 Sudoeste 0 -- -- 20
2019-08-17 19:00:00 36.8 6 Oeste 24 Sudoeste 0 -- -- 18
2019-08-17 18:00:00 37.4 8 Sudoeste 30 Sudoeste 0 -- -- 18
2019-08-17 17:00:00 37.2 11 Sudoeste 32 Sur 0 -- -- 18
2019-08-17 16:00:00 37 13 Sudoeste 28 Oeste 0 -- -- 19
2019-08-17 15:00:00 36.7 9 Oeste 26 Oeste 0 -- -- 21
2019-08-17 14:00:00 35.4 9 Sudoeste 24 Sudoeste 0 -- -- 24
2019-08-17 13:00:00 33.7 8 Sudoeste 16 Sudoeste 0 -- -- 27
2019-08-17 12:00:00 30.9 6 Sur 14 Sudoeste 0 -- -- 30
2019-08-17 11:00:00 28.6 8 Sur 14 Sur 0 -- -- 34
2019-08-17 10:00:00 26.2 6 Sur 10 Sur 0 -- -- 37
2019-08-17 09:00:00 23.4 5 Sudeste 13 Sudeste 0 -- -- 46
2019-08-17 08:00:00 21.6 4 Sudeste 12 Este 0 -- -- 55
2019-08-17 07:00:00 21.7 7 Sudeste 13 Sudeste 0 -- -- 59
2019-08-17 06:00:00 22.2 3 Sudeste 22 Sudeste 0 -- -- 58
2019-08-17 05:00:00 22.8 5 Sudeste 10 Sudeste 0 -- -- 59
2019-08-17 04:00:00 23.4 4 Nordeste 13 Sudeste 0 -- -- 58
2019-08-17 03:00:00 24.4 2 Este 23 Este 0 -- -- 56
2019-08-17 02:00:00 25.5 8 Este 20 Este 0 -- -- 50
2019-08-17 01:00:00 25.5 7 Nordeste 17 Nordeste 0 -- -- 33
2019-08-17 00:00:00 27.4 4 Nordeste 12 Oeste 0 -- -- 29
2019-08-16 23:00:00 28.9 2 Nordeste 6 Noroeste 0 -- -- 28
2019-08-16 22:00:00 30.9 2 Sudoeste 14 Sudoeste 0 -- -- 25
2019-08-16 21:00:00 33.1 6 Oeste 17 Oeste 0 -- -- 22
2019-08-16 20:00:00 34.9 8 Oeste 20 Oeste 0 -- -- 20
2019-08-16 19:00:00 36.1 6 Sudoeste 19 Sudoeste 0 -- -- 20
2019-08-16 18:00:00 36.7 9 Sudoeste 22 Noroeste 0 -- -- 19
2019-08-16 17:00:00 36.8 7 Oeste 22 Oeste 0 -- -- 19
2019-08-16 16:00:00 36.3 10 Oeste 20 Oeste 0 -- -- 21
2019-08-16 15:00:00 35.5 8 Oeste 21 Sudoeste 0 -- -- 24
2019-08-16 14:00:00 32.9 7 Sudoeste 18 Sur 0 -- -- 30
2019-08-16 13:00:00 30.6 6 Sur 20 Sudeste 0 -- -- 34
2019-08-16 12:00:00 28.4 9 Sur 23 Este 0 -- -- 39
2019-08-16 11:00:00 25.9 14 Sudeste 27 Sudeste 0 -- -- 46
2019-08-16 10:00:00 23.5 14 Sudeste 32 Este 0 -- -- 56
2019-08-16 09:00:00 21.3 15 Sudeste 32 Este 0 -- -- 63
2019-08-16 08:00:00 20 17 Sudeste 31 Este 0 -- -- 64
2019-08-16 07:00:00 20.4 17 Sudeste 31 Este 0 -- -- 63
2019-08-16 06:00:00 20.8 18 Este 33 Este 0 -- -- 63
2019-08-16 05:00:00 21.2 14 Este 30 Este 0 -- -- 62
2019-08-16 04:00:00 21.6 15 Este 31 Este 0 -- -- 62
2019-08-16 03:00:00 22.3 17 Este 32 Este 0 -- -- 61
2019-08-16 02:00:00 23.1 18 Este 33 Sudeste 0 -- -- 61
2019-08-16 01:00:00 25 19 Sudeste 29 Sudeste 0 -- -- 51
2019-08-16 00:00:00 24.7 5 Nordeste 11 Este 0 -- -- 29
2019-08-15 23:00:00 26 5 Nordeste 10 Nordeste 0 -- -- 27
2019-08-15 22:00:00 28.8 5 Nordeste 8 Nordeste 0 -- -- 24
2019-08-15 21:00:00 31.9 0 Calma 17 Noroeste 0 -- -- 22
2019-08-15 20:00:00 33.6 7 Noroeste 16 Noroeste 0 -- -- 20
2019-08-15 19:00:00 35.7 8 Noroeste 18 Oeste 0 -- -- 19
2019-08-15 18:00:00 35.7 7 Sudoeste 18 Sudoeste 0 -- -- 17
2019-08-15 17:00:00 36 6 Oeste 18 Noroeste 0 -- -- 18
2019-08-15 16:00:00 36 10 Noroeste 22 Noroeste 0 -- -- 19
2019-08-15 15:00:00 35.2 7 Norte 22 Sudoeste 0 -- -- 20
2019-08-15 14:00:00 34.7 6 Sudoeste 12 Sudoeste 0 -- -- 21
2019-08-15 13:00:00 32.5 4 Sudoeste 13 Sur 0 -- -- 26
2019-08-15 12:00:00 30 7 Sur 13 Sur 0 -- -- 33
2019-08-15 11:00:00 26.9 8 Sudeste 20 Sur 0 -- -- 41
2019-08-15 10:00:00 24.1 12 Sudeste 21 Sudeste 0 -- -- 52
2019-08-15 09:00:00 20.9 6 Sudeste 17 Sudeste 0 -- -- 59
2019-08-15 08:00:00 18.6 3 Oeste 7 Sudeste 0 -- -- 61
2019-08-15 07:00:00 18.6 0 Calma 11 Este 0 -- -- 53
2019-08-15 06:00:00 20 2 Norte 8 Norte 0 -- -- 62
2019-08-15 05:00:00 20.5 2 Nordeste 9 Noroeste 0 -- -- 57
2019-08-15 04:00:00 22.2 6 Este 20 Este 0 -- -- 47
2019-08-15 03:00:00 22 11 Este 19 Este 0 -- -- 34
2019-08-15 02:00:00 21.1 4 Nordeste 10 Nordeste 0 -- -- 31
2019-08-15 01:00:00 21.9 5 Nordeste 11 Este 0 -- -- 30
2019-08-15 00:00:00 23.2 4 Nordeste 10 Nordeste 0 -- -- 28
2019-08-14 23:00:00 24.7 5 Nordeste 10 Nordeste 0 -- -- 27
2019-08-14 22:00:00 27.4 4 Nordeste 9 Nordeste 0 -- -- 23
2019-08-14 21:00:00 29.7 3 Norte 14 Noroeste 0 -- -- 22
2019-08-14 20:00:00 31.4 4 Noroeste 19 Noroeste 0 -- -- 20
2019-08-14 19:00:00 33.4 8 Noroeste 20 Oeste 0 -- -- 19
2019-08-14 18:00:00 33.9 5 Noroeste 22 Oeste 0 -- -- 19
2019-08-14 17:00:00 33.7 8 Oeste 21 Noroeste 0 -- -- 20
2019-08-14 16:00:00 33.8 8 Oeste 21 Sudoeste 0 -- -- 21
2019-08-14 15:00:00 32.6 6 Oeste 21 Oeste 0 -- -- 21
2019-08-14 14:00:00 31.6 9 Oeste 23 Sudoeste 0 -- -- 25
2019-08-14 13:00:00 30.1 4 Sudoeste 11 Oeste 0 -- -- 26
2019-08-14 12:00:00 27.3 3 Sudoeste 10 Sur 0 -- -- 39
2019-08-14 11:00:00 24.2 6 Sudeste 17 Este 0 -- -- 52
2019-08-14 10:00:00 21.1 9 Este 21 Sudeste 0 -- -- 74
2019-08-14 09:00:00 18.8 12 Sudeste 22 Este 0 -- -- 84
2019-08-14 08:00:00 17.4 9 Sudeste 23 Este 0 -- -- 89
2019-08-14 07:00:00 17.5 12 Este 26 Este 0 -- -- 89
2019-08-14 06:00:00 17.8 10 Este 20 Este 0 -- -- 87
2019-08-14 05:00:00 18.1 4 Este 22 Este 0 -- -- 85
2019-08-14 04:00:00 19.1 4 Nordeste 24 Este 0 -- -- 80
2019-08-14 03:00:00 19.7 14 Sudeste 26 Este 0 -- -- 74
2019-08-14 02:00:00 20.5 13 Sudeste 27 Este 0 -- -- 65
2019-08-14 01:00:00 19.5 5 Nordeste 9 Nordeste 0 -- -- 32
2019-08-14 00:00:00 20.9 3 Nordeste 9 Nordeste 0 -- -- 30
2019-08-13 23:00:00 22.8 4 Nordeste 9 Este 0 -- -- 28
2019-08-13 22:00:00 25.1 3 Nordeste 13 Norte 0 -- -- 25
2019-08-13 21:00:00 27.2 6 Norte 19 Noroeste 0 -- -- 22
2019-08-13 20:00:00 28.8 10 Noroeste 21 Norte 0 -- -- 22
2019-08-13 19:00:00 30.1 10 Noroeste 26 Noroeste 0 -- -- 23
2019-08-13 18:00:00 30.7 6 Noroeste 24 Noroeste 0 -- -- 27
2019-08-13 17:00:00 31.1 7 Oeste 23 Oeste 0 -- -- 24
2019-08-13 16:00:00 31.1 6 Noroeste 19 Oeste 0 -- -- 29
2019-08-13 15:00:00 30 6 Noroeste 15 Noroeste 0 -- -- 30
2019-08-13 14:00:00 28.1 5 Norte 19 Noroeste 0 -- -- 39
2019-08-13 13:00:00 27.3 6 Oeste 19 Sudeste 0 -- -- 40
2019-08-13 12:00:00 24.4 11 Sudeste 26 Este 0 -- -- 57
2019-08-13 11:00:00 22.8 14 Sudeste 29 Sudeste 0 -- -- 61
2019-08-13 10:00:00 21.4 13 Sudeste 29 Este 0 -- -- 65
2019-08-13 09:00:00 19.4 13 Sudeste 27 Sudeste 0 -- -- 69
2019-08-13 08:00:00 18.3 11 Este 21 Este 0 -- -- 71
2019-08-13 07:00:00 18.3 4 Nordeste 23 Sudeste 0 -- -- 69
2019-08-13 06:00:00 18.8 13 Este 30 Este 0 -- -- 66
2019-08-13 05:00:00 19.4 17 Sudeste 32 Sudeste 0 -- -- 64
2019-08-13 04:00:00 20.1 14 Este 31 Este 0 -- -- 70
2019-08-13 03:00:00 19.9 15 Este 27 Este 0 -- -- 73
2019-08-13 02:00:00 20.1 15 Este 31 Este 0 -- -- 76
2019-08-13 01:00:00 20.2 13 Sudeste 28 Nordeste 0 -- -- 54
2019-08-13 00:00:00 21.1 9 Nordeste 15 Nordeste 0 -- -- 26
2019-08-12 23:00:00 22.2 6 Norte 12 Nordeste 0 -- -- 23
2019-08-12 22:00:00 23.8 5 Norte 18 Norte 0 -- -- 22
2019-08-12 21:00:00 25.7 7 Norte 18 Noroeste 0 -- -- 21
2019-08-12 20:00:00 27.4 7 Norte 18 Norte 0 -- -- 21
2019-08-12 19:00:00 29.4 8 Noroeste 24 Noroeste 0 -- -- 18
2019-08-12 18:00:00 29.9 10 Noroeste 24 Oeste 0 -- -- 18
2019-08-12 17:00:00 29.8 10 Noroeste 24 Norte 0 -- -- 19
2019-08-12 16:00:00 29.5 8 Norte 26 Norte 0 -- -- 22
2019-08-12 15:00:00 28.7 6 Nordeste 24 Noroeste 0 -- -- 23
2019-08-12 14:00:00 28.4 5 Norte 23 Noroeste 0 -- -- 23
2019-08-12 13:00:00 26.9 9 Norte 22 Norte 0 -- -- 26
2019-08-12 12:00:00 25.6 11 Norte 27 Nordeste 0 -- -- 30
2019-08-12 11:00:00 24 12 Norte 29 Norte 0 -- -- 35
2019-08-12 10:00:00 22 15 Norte 31 Nordeste 0 -- -- 39
2019-08-12 09:00:00 18 10 Norte 20 Norte 0 -- -- 48
2019-08-12 08:00:00 16 7 Norte 19 Norte 0 -- -- 44
2019-08-12 07:00:00 16.3 5 Norte 11 Nordeste 0 -- -- 39
2019-08-12 06:00:00 17.2 4 Noroeste 8 Norte 0 -- -- 37
2019-08-12 05:00:00 18.7 3 Norte 10 Norte 0 -- -- 34
2019-08-12 04:00:00 19.6 3 Norte 13 Noroeste 0 -- -- 33
2019-08-12 03:00:00 20.1 5 Noroeste 10 Norte 0 -- -- 32
2019-08-12 02:00:00 20.3 2 Noroeste 13 Noroeste 0 -- -- 30
2019-08-12 01:00:00 21.2 6 Noroeste 12 Noroeste 0 -- -- 29
2019-08-12 00:00:00 22.2 4 Norte 10 Norte 0 -- -- 29
2019-08-11 23:00:00 23.5 6 Norte 14 Noroeste 0 -- -- 28
2019-08-11 22:00:00 24.7 5 Noroeste 14 Oeste 0 -- -- 23
2019-08-11 21:00:00 27 9 Oeste 24 Oeste 0 -- -- 17
2019-08-11 20:00:00 28.9 14 Oeste 33 Oeste 0 -- -- 19
2019-08-11 19:00:00 30.8 14 Oeste 32 Sudoeste 0 -- -- 19
2019-08-11 18:00:00 31.4 12 Sudoeste 33 Sur 0 -- -- 20
2019-08-11 17:00:00 32.2 13 Oeste 36 Sudoeste 0 -- -- 20
2019-08-11 16:00:00 31.4 10 Sudoeste 27 Oeste 0 -- -- 23
2019-08-11 15:00:00 31 10 Oeste 33 Oeste 0 -- -- 26
2019-08-11 14:00:00 30.6 9 Sudoeste 29 Sudoeste 0 -- -- 24
2019-08-11 13:00:00 29.5 13 Oeste 29 Oeste 0 -- -- 25
2019-08-11 12:00:00 28.1 8 Oeste 17 Oeste 0 -- -- 29
2019-08-11 11:00:00 25.2 5 Sudoeste 12 Oeste 0 -- -- 34
2019-08-11 10:00:00 22.7 4 Sur 11 Sudoeste 0 -- -- 38
2019-08-11 09:00:00 20.2 2 Sur 5 Nordeste 0 -- -- 40
2019-08-11 08:00:00 17.2 4 Nordeste 8 Nordeste 0 -- -- 45
2019-08-11 07:00:00 17.1 5 Nordeste 8 Nordeste 0 -- -- 45
2019-08-11 06:00:00 18.2 2 Nordeste 6 Nordeste 0 -- -- 44
2019-08-11 05:00:00 19.2 3 Nordeste 8 Nordeste 0 -- -- 42
2019-08-11 04:00:00 20.8 3 Nordeste 4 Nordeste 0 -- -- 39
2019-08-11 03:00:00 22.3 0 Calma 5 Nordeste 0 -- -- 38
2019-08-11 02:00:00 24.3 2 Norte 12 Norte 0 -- -- 35
2019-08-11 01:00:00 25.1 4 Norte 9 Norte 0 -- -- 35
2019-08-11 00:00:00 26.3 4 Norte 8 Noroeste 0 -- -- 35
2019-08-10 23:00:00 27.8 0 Calma 5 Oeste 0 -- -- 38
2019-08-10 22:00:00 29.6 0 Calma 9 Oeste 0 -- -- 37
2019-08-10 21:00:00 31 6 Oeste 17 Oeste 0 -- -- 34
2019-08-10 20:00:00 32.2 5 Oeste 21 Oeste 0 -- -- 34
2019-08-10 19:00:00 33.5 10 Oeste 30 Oeste 0 -- -- 31
2019-08-10 18:00:00 34 9 Oeste 27 Oeste 0 -- -- 32
2019-08-10 17:00:00 33 10 Sudoeste 29 Sudoeste 0 -- -- 34
2019-08-10 16:00:00 32.6 12 Sudoeste 31 Oeste 0 -- -- 32
2019-08-10 15:00:00 31.7 12 Sudoeste 26 Oeste 0 -- -- 37
2019-08-10 14:00:00 30.3 7 Sudoeste 19 Oeste 0 -- -- 41
2019-08-10 13:00:00 29.1 8 Sudoeste 27 Este 0 -- -- 44
2019-08-10 12:00:00 27.5 6 Sur 15 Sudeste 0 -- -- 47
2019-08-10 11:00:00 26.4 5 Norte 12 Norte 0 -- -- 48
2019-08-10 10:00:00 24.4 3 Noroeste 12 Noroeste 0 -- -- 50
2019-08-10 09:00:00 20.9 4 Norte 12 Norte 0 -- -- 64
2019-08-10 08:00:00 19.2 4 Norte 12 Noroeste 0 -- -- 72
2019-08-10 07:00:00 19.3 3 Noroeste 6 Noroeste 0 -- -- 74
2019-08-10 06:00:00 20.2 4 Noroeste 9 Noroeste 0 -- -- 72
2019-08-10 05:00:00 21.2 4 Noroeste 8 Norte 0 -- -- 71
2019-08-10 04:00:00 21.7 5 Norte 12 Norte 0 -- -- 69
2019-08-10 03:00:00 22.3 7 Norte 13 Norte 0 -- -- 67
2019-08-10 02:00:00 23 7 Norte 15 Noroeste 0 -- -- 64
2019-08-10 01:00:00 24.1 7 Norte 14 Norte 0 -- -- 64
2019-08-10 00:00:00 25.6 5 Noroeste 22 Noroeste 0 -- -- 60
2019-08-09 23:00:00 27.1 10 Norte 21 Noroeste 0 -- -- 55
2019-08-09 22:00:00 28.8 11 Noroeste 33 Noroeste 0 -- -- 39
2019-08-09 21:00:00 30.9 8 Noroeste 32 Noroeste 0 -- -- 35
2019-08-09 20:00:00 32.4 12 Oeste 31 Oeste 0 -- -- 32
2019-08-09 19:00:00 33.9 12 Oeste 36 Oeste 0 -- -- 31
2019-08-09 18:00:00 34.6 13 Oeste 40 Sudoeste 0 -- -- 29
2019-08-09 17:00:00 34.5 12 Sudoeste 33 Sudoeste 0 -- -- 30
2019-08-09 16:00:00 34.3 12 Oeste 32 Oeste 0 -- -- 29
2019-08-09 15:00:00 33.5 9 Oeste 24 Sudoeste 0 -- -- 33
2019-08-09 14:00:00 33 10 Oeste 33 Sudoeste 0 -- -- 35
2019-08-09 13:00:00 31.4 9 Oeste 24 Sudoeste 0 -- -- 38
2019-08-09 12:00:00 30.1 11 Oeste 25 Oeste 0 -- -- 40
2019-08-09 11:00:00 28.5 8 Oeste 19 Oeste 0 -- -- 43
2019-08-09 10:00:00 25.1 4 Sudoeste 9 Sudoeste 0 -- -- 46
2019-08-09 09:00:00 21.4 3 Sudoeste 9 Sudoeste 0 -- -- 48
2019-08-09 08:00:00 19.3 4 Sudeste 6 Sudeste 0 -- -- 44
2019-08-09 07:00:00 18.6 0 Calma 8 Este 0 -- -- 51
2019-08-09 06:00:00 19.4 4 Nordeste 9 Nordeste 0 -- -- 46
2019-08-09 05:00:00 19.9 5 Nordeste 9 Nordeste 0 -- -- 46
2019-08-09 04:00:00 20.7 6 Nordeste 9 Nordeste 0 -- -- 44
2019-08-09 03:00:00 21.9 5 Nordeste 8 Este 0 -- -- 42
2019-08-09 02:00:00 24 4 Este 7 Nordeste 0 -- -- 38
2019-08-09 01:00:00 24.9 2 Sudeste 7 Sudeste 0 -- -- 36
2019-08-09 00:00:00 26.7 3 Nordeste 6 Este 0 -- -- 33
2019-08-08 23:00:00 28.3 0 Calma 6 Sudoeste 0 -- -- 31
2019-08-08 22:00:00 30.1 0 Calma 10 Sudoeste 0 -- -- 29
2019-08-08 21:00:00 32 5 Oeste 23 Sudoeste 0 -- -- 27
2019-08-08 20:00:00 33.3 10 Oeste 27 Oeste 0 -- -- 26
2019-08-08 19:00:00 34.3 11 Oeste 29 Oeste 0 -- -- 26
2019-08-08 18:00:00 34.8 12 Sudoeste 27 Sudoeste 0 -- -- 26
2019-08-08 17:00:00 34.6 11 Oeste 23 Sudoeste 0 -- -- 26
2019-08-08 16:00:00 33.7 12 Sudoeste 31 Sudoeste 0 -- -- 28
2019-08-08 15:00:00 32.5 9 Sudoeste 21 Sudeste 0 -- -- 32
2019-08-08 14:00:00 30.6 10 Sur 23 Sudoeste 0 -- -- 34
2019-08-08 13:00:00 29.6 6 Sur 15 Sudoeste 0 -- -- 35
2019-08-08 12:00:00 28.1 5 Oeste 15 Sudoeste 0 -- -- 40
2019-08-08 11:00:00 27.3 5 Oeste 11 Norte 0 -- -- 43
2019-08-08 10:00:00 25.1 4 Noroeste 10 Noroeste 0 -- -- 49
2019-08-08 09:00:00 19.7 0 Calma 5 Este 0 -- -- 61
2019-08-08 08:00:00 17.1 0 Calma 6 Nordeste 0 -- -- 63
2019-08-08 07:00:00 18.6 3 Nordeste 6 Nordeste 0 -- -- 62
2019-08-08 06:00:00 19.2 0 Calma 4 Este 0 -- -- 55
2019-08-08 05:00:00 20.3 0 Calma 9 Nordeste 0 -- -- 55
2019-08-08 04:00:00 21.1 3 Norte 10 Nordeste 0 -- -- 52
2019-08-08 03:00:00 21.4 3 Norte 8 Norte 0 -- -- 51
2019-08-08 02:00:00 21.8 3 Nordeste 7 Norte 0 -- -- 49
2019-08-08 01:00:00 23 3 Nordeste 9 Noroeste 0 -- -- 45
2019-08-08 00:00:00 24.3 4 Noroeste 12 Noroeste 0 -- -- 43
2019-08-07 23:00:00 25.3 6 Norte 14 Norte 0 -- -- 43
2019-08-07 22:00:00 26.1 5 Norte 18 Oeste 0 -- -- 39
2019-08-07 21:00:00 27 10 Noroeste 27 Noroeste 0 -- -- 35
2019-08-07 20:00:00 28.5 9 Noroeste 29 Noroeste 0 -- -- 31
2019-08-07 19:00:00 29.6 13 Noroeste 31 Noroeste 0 -- -- 31
2019-08-07 18:00:00 29.5 10 Norte 39 Norte 0 -- -- 32
2019-08-07 17:00:00 31 17 Norte 31 Noroeste 0 -- -- 27
2019-08-07 16:00:00 33.3 9 Noroeste 25 Noroeste 0 -- -- 24
2019-08-07 15:00:00 33.5 10 Oeste 27 Oeste 0 -- -- 24
2019-08-07 14:00:00 31.8 11 Oeste 26 Oeste 0 -- -- 27
2019-08-07 13:00:00 29.5 9 Oeste 26 Sudoeste 0 -- -- 31
2019-08-07 12:00:00 30.1 11 Oeste 26 Sudoeste 0 -- -- 30
2019-08-07 11:00:00 28.1 9 Oeste 21 Oeste 0 -- -- 35
2019-08-07 10:00:00 23.6 4 Sudoeste 13 Sur 0 -- -- 42
2019-08-07 09:00:00 20.4 5 Sur 9 Sur 0 -- -- 43
2019-08-07 08:00:00 19.6 4 Sudeste 7 Sudeste 0 -- -- 39
2019-08-07 07:00:00 18.6 4 Este 6 Nordeste 0 -- -- 34
2019-08-07 06:00:00 20.5 3 Sudeste 7 Sur 0 -- -- 31
2019-08-07 05:00:00 21 4 Sudeste 6 Sur 0 -- -- 29
2019-08-07 04:00:00 20.1 4 Nordeste 9 Nordeste 0 -- -- 28
2019-08-07 03:00:00 20.9 3 Este 6 Nordeste 0 -- -- 25
2019-08-07 02:00:00 22.2 0 Calma 6 Este 0 -- -- 23
2019-08-07 01:00:00 23.8 4 Nordeste 7 Este 0 -- -- 21
2019-08-07 00:00:00 25.8 3 Nordeste 7 Nordeste 0 -- -- 20
2019-08-06 23:00:00 27.2 3 Nordeste 5 Nordeste 0 -- -- 18
2019-08-06 22:00:00 29.8 0 Calma 7 Oeste 0 -- -- 16
2019-08-06 21:00:00 32.2 5 Oeste 26 Noroeste 0 -- -- 13
2019-08-06 20:00:00 34.1 9 Oeste 32 Oeste 0 -- -- 12
2019-08-06 19:00:00 36.1 9 Oeste 29 Sudoeste 0 -- -- 12
2019-08-06 18:00:00 36.4 11 Sudoeste 29 Oeste 0 -- -- 14
2019-08-06 17:00:00 36.3 12 Oeste 28 Sudoeste 0 -- -- 13
2019-08-06 16:00:00 35.9 11 Sudoeste 33 Oeste 0 -- -- 15
2019-08-06 15:00:00 35.6 12 Oeste 31 Oeste 0 -- -- 15
2019-08-06 14:00:00 34.2 7 Oeste 22 Oeste 0 -- -- 19
2019-08-06 13:00:00 33 9 Sudoeste 21 Oeste 0 -- -- 20
2019-08-06 12:00:00 31.1 6 Sudoeste 14 Sudoeste 0 -- -- 21
2019-08-06 11:00:00 27.5 4 Sur 10 Sur 0 -- -- 25
2019-08-06 10:00:00 24.7 5 Sur 10 Sur 0 -- -- 28
2019-08-06 09:00:00 22 3 Sudoeste 10 Sudeste 0 -- -- 31
2019-08-06 08:00:00 18 5 Nordeste 9 Nordeste 0 -- -- 36
2019-08-06 07:00:00 18.6 5 Nordeste 8 Nordeste 0 -- -- 35
2019-08-06 06:00:00 19.4 5 Nordeste 9 Nordeste 0 -- -- 34
2019-08-06 05:00:00 20.9 4 Este 7 Sudeste 0 -- -- 32
2019-08-06 04:00:00 22.1 0 Calma 12 Oeste 0 -- -- 30
2019-08-06 03:00:00 24.8 4 Nordeste 14 Nordeste 0 -- -- 27
2019-08-06 02:00:00 25 4 Nordeste 8 Norte 0 -- -- 27
2019-08-06 01:00:00 26.3 3 Nordeste 8 Norte 0 -- -- 25
2019-08-06 00:00:00 27.3 3 Nordeste 8 Oeste 0 -- -- 23
2019-08-05 23:00:00 27.6 4 Nordeste 10 Este 0 -- -- 22
2019-08-05 22:00:00 30.7 3 Nordeste 7 Noroeste 0 -- -- 20
2019-08-05 21:00:00 32.9 4 Noroeste 22 Oeste 0 -- -- 18
2019-08-05 20:00:00 34.7 9 Oeste 28 Oeste 0 -- -- 15
2019-08-05 19:00:00 36.5 10 Oeste 24 Sudoeste 0 -- -- 14
2019-08-05 18:00:00 37 8 Oeste 30 Sudoeste 0 -- -- 15
2019-08-05 17:00:00 36.6 8 Sudoeste 23 Sudoeste 0 -- -- 14
2019-08-05 16:00:00 36.2 9 Oeste 23 Oeste 0 -- -- 16
2019-08-05 15:00:00 35.5 8 Sudoeste 23 Sudoeste 0 -- -- 18
2019-08-05 14:00:00 34.7 8 Sudoeste 21 Oeste 0 -- -- 20
2019-08-05 13:00:00 33.8 4 Oeste 10 Sudoeste 0 -- -- 26
2019-08-05 12:00:00 31.3 3 Noroeste 8 Sudoeste 0 -- -- 31
2019-08-05 11:00:00 28.4 2 Sudoeste 8 Sudoeste 0 -- -- 35
2019-08-05 10:00:00 25.9 3 Oeste 5 Noroeste 0 -- -- 50
2019-08-05 09:00:00 21.1 0 Calma 5 Oeste 0 -- -- 63
2019-08-05 08:00:00 19 0 Calma 6 Norte 0 -- -- 62
2019-08-05 07:00:00 19.8 2 Nordeste 9 Este 0 -- -- 69
2019-08-05 06:00:00 20.5 4 Nordeste 8 Nordeste 0 -- -- 61
2019-08-05 05:00:00 21.8 0 Calma 5 Noroeste 0 -- -- 41
2019-08-05 04:00:00 24 6 Este 13 Este 0 -- -- 55
2019-08-05 03:00:00 23.3 5 Nordeste 13 Este 0 -- -- 30
2019-08-05 02:00:00 23.5 4 Nordeste 10 Este 0 -- -- 25
2019-08-05 01:00:00 24.4 4 Nordeste 9 Nordeste 0 -- -- 26
2019-08-05 00:00:00 26.3 4 Nordeste 8 Nordeste 0 -- -- 25
2019-08-04 23:00:00 28.5 3 Nordeste 6 Nordeste 0 -- -- 24
2019-08-04 22:00:00 30.6 3 Norte 8 Oeste 0 -- -- 23
2019-08-04 21:00:00 32.7 3 Oeste 15 Oeste 0 -- -- 21
2019-08-04 20:00:00 34.2 6 Oeste 21 Sudoeste 0 -- -- 19
2019-08-04 19:00:00 35.8 8 Oeste 24 Sudoeste 0 -- -- 19
2019-08-04 18:00:00 36.4 8 Oeste 21 Oeste 0 -- -- 19
2019-08-04 17:00:00 36.5 9 Oeste 26 Sudoeste 0 -- -- 21
2019-08-04 16:00:00 36.3 11 Sudoeste 23 Sudoeste 0 -- -- 19
2019-08-04 15:00:00 35.6 6 Sudoeste 21 Oeste 0 -- -- 20
2019-08-04 14:00:00 34.1 8 Sudoeste 20 Sudoeste 0 -- -- 21
2019-08-04 13:00:00 32.2 6 Sudoeste 18 Sudoeste 0 -- -- 22
2019-08-04 12:00:00 30.3 5 Sur 14 Sudeste 0 -- -- 27
2019-08-04 11:00:00 27.6 4 Sur 12 Sudoeste 0 -- -- 32
2019-08-04 10:00:00 25.4 5 Sudoeste 10 Sudoeste 0 -- -- 34
2019-08-04 09:00:00 21.7 0 Calma 4 Nordeste 0 -- -- 49
2019-08-04 08:00:00 19.7 3 Nordeste 7 Este 0 -- -- 66
2019-08-04 07:00:00 19.9 2 Nordeste 5 Nordeste 0 -- -- 69
2019-08-04 06:00:00 21 0 Calma 9 Este 0 -- -- 62
2019-08-04 05:00:00 21.3 0 Calma 5 Sur 0 -- -- 61
2019-08-04 04:00:00 22.5 2 Sudoeste 13 Nordeste 0 -- -- 54
2019-08-04 03:00:00 23.5 3 Norte 8 Nordeste 0 -- -- 55
2019-08-04 02:00:00 24 4 Nordeste 12 Este 0 -- -- 49
2019-08-04 01:00:00 24.4 6 Nordeste 10 Nordeste 0 -- -- 26
2019-08-04 00:00:00 26.6 5 Nordeste 8 Nordeste 0 -- -- 25
2019-08-03 23:00:00 27.3 5 Este 9 Nordeste 0 -- -- 24
2019-08-03 22:00:00 30.2 4 Nordeste 6 Nordeste 0 -- -- 21
2019-08-03 21:00:00 33 3 Oeste 21 Oeste 0 -- -- 19
2019-08-03 20:00:00 34.6 9 Oeste 28 Oeste 0 -- -- 16
2019-08-03 19:00:00 36.2 13 Oeste 31 Sudoeste 0 -- -- 15
2019-08-03 18:00:00 36.4 9 Sudoeste 25 Oeste 0 -- -- 17
2019-08-03 17:00:00 36.2 9 Sudoeste 23 Sudoeste 0 -- -- 18
2019-08-03 16:00:00 36 6 Sudoeste 20 Sudoeste 0 -- -- 18
2019-08-03 15:00:00 35.8 6 Oeste 17 Oeste 0 -- -- 19
2019-08-03 14:00:00 33.9 4 Sudoeste 15 Oeste 0 -- -- 21
2019-08-03 13:00:00 32.2 5 Sudoeste 16 Sudoeste 0 -- -- 26
2019-08-03 12:00:00 28.9 6 Sur 17 Sudeste 0 -- -- 34
2019-08-03 11:00:00 26.1 9 Sudeste 18 Sudeste 0 -- -- 45
2019-08-03 10:00:00 23.6 12 Sudeste 27 Sudeste 0 -- -- 60
2019-08-03 09:00:00 21.4 14 Sudeste 30 Sudeste 0 -- -- 66
2019-08-03 08:00:00 20.1 15 Sudeste 27 Este 0 -- -- 64
2019-08-03 07:00:00 20.2 14 Sudeste 30 Este 0 -- -- 61
2019-08-03 06:00:00 20.9 17 Sudeste 34 Este 0 -- -- 60
2019-08-03 05:00:00 21.6 18 Sudeste 35 Este 0 -- -- 57
2019-08-03 04:00:00 22.2 21 Este 35 Este 0 -- -- 50
2019-08-03 03:00:00 23.2 15 Sudeste 33 Este 0 -- -- 52
2019-08-03 02:00:00 24.6 19 Sudeste 34 Este 0 -- -- 54
2019-08-03 01:00:00 26.2 14 Sudeste 31 Sudeste 0 -- -- 49
2019-08-03 00:00:00 26.9 15 Este 27 Sudeste 0 -- -- 39
2019-08-02 23:00:00 26.4 8 Nordeste 12 Este 0 -- -- 24
2019-08-02 22:00:00 29.5 5 Nordeste 9 Nordeste 0 -- -- 21
2019-08-02 21:00:00 32.4 2 Noroeste 14 Oeste 0 -- -- 20
2019-08-02 20:00:00 34.2 4 Oeste 19 Oeste 0 -- -- 15
2019-08-02 19:00:00 35.8 6 Sudoeste 15 Noroeste 0 -- -- 16
2019-08-02 18:00:00 35.9 5 Oeste 18 Oeste 0 -- -- 17
2019-08-02 17:00:00 35.4 5 Sudeste 19 Sudoeste 0 -- -- 17
2019-08-02 16:00:00 35.8 5 Oeste 19 Noroeste 0 -- -- 18
2019-08-02 15:00:00 35.4 6 Oeste 14 Oeste 0 -- -- 20
2019-08-02 14:00:00 34.1 5 Oeste 17 Sudoeste 0 -- -- 22
2019-08-02 13:00:00 31.9 5 Sur 16 Sur 0 -- -- 23
2019-08-02 12:00:00 29.6 3 Sudoeste 11 Sudoeste 0 -- -- 31
2019-08-02 11:00:00 27 4 Oeste 10 Oeste 0 -- -- 38
2019-08-02 10:00:00 23.9 5 Sur 14 Sudeste 0 -- -- 52
2019-08-02 09:00:00 21.5 6 Sudeste 15 Sudeste 0 -- -- 70
2019-08-02 08:00:00 19.6 5 Sudeste 11 Este 0 -- -- 76
2019-08-02 07:00:00 20 5 Este 9 Este 0 -- -- 63
2019-08-02 06:00:00 19.2 0 Calma 8 Este 0 -- -- 51
2019-08-02 05:00:00 19.5 4 Nordeste 10 Este 0 -- -- 36
2019-08-02 04:00:00 20.6 4 Nordeste 9 Nordeste 0 -- -- 34
2019-08-02 03:00:00 21.8 5 Nordeste 10 Nordeste 0 -- -- 31
2019-08-02 02:00:00 23.2 3 Nordeste 9 Nordeste 0 -- -- 27
2019-08-02 01:00:00 24.9 3 Nordeste 8 Nordeste 0 -- -- 26
2019-08-02 00:00:00 26.2 4 Norte 8 Este 0 -- -- 25
2019-08-01 23:00:00 27.3 3 Nordeste 12 Noroeste 0 -- -- 24
2019-08-01 22:00:00 29.4 3 Noroeste 15 Sudoeste 0 -- -- 23
2019-08-01 21:00:00 31.8 6 Sudoeste 25 Sudoeste 0 -- -- 22
2019-08-01 20:00:00 33.3 9 Sudoeste 24 Oeste 0 -- -- 21
2019-08-01 19:00:00 34.5 9 Este 25 Sudoeste 0 -- -- 21
2019-08-01 18:00:00 34.8 10 Sudoeste 24 Sudoeste 0 -- -- 21
2019-08-01 17:00:00 34.8 5 Oeste 25 Oeste 0 -- -- 21
2019-08-01 16:00:00 33.7 7 Sudoeste 29 Oeste 0 -- -- 22
2019-08-01 15:00:00 33.1 7 Sudoeste 21 Sudoeste 0 -- -- 27
2019-08-01 14:00:00 32.1 8 Oeste 18 Sudoeste 0 -- -- 30
2019-08-01 13:00:00 29.5 6 Oeste 20 Sur 0 -- -- 38
2019-08-01 12:00:00 26.2 10 Sudeste 22 Sudeste 0 -- -- 50
2019-08-01 11:00:00 23.8 13 Sudeste 28 Este 0 -- -- 59
2019-08-01 10:00:00 21.6 14 Sudeste 31 Sudeste 0 -- -- 68
2019-08-01 09:00:00 19.2 18 Sudeste 36 Sudeste 0 -- -- 79
2019-08-01 08:00:00 17.6 18 Sudeste 42 Sudeste 0 -- -- 86
2019-08-01 07:00:00 17.7 22 Sudeste 40 Sudeste 0 -- -- 84
2019-08-01 06:00:00 18 21 Sudeste 40 Sudeste 0 -- -- 82
2019-08-01 05:00:00 18.7 22 Sudeste 43 Este 0 -- -- 76
2019-08-01 04:00:00 19.3 24 Sudeste 42 Sudeste 0 -- -- 74
2019-08-01 03:00:00 19.7 24 Sudeste 45 Este 0 -- -- 74
2019-08-01 02:00:00 20.2 27 Sudeste 47 Este 0 -- -- 72
2019-08-01 01:00:00 20.7 27 Sudeste 52 Este 0 -- -- 71
2019-08-01 00:00:00 21.5 27 Sudeste 56 Este 0 -- -- 68
2019-07-31 23:00:00 22.8 25 Sudeste 49 Este 0 -- -- 64
2019-07-31 22:00:00 24.2 28 Sudeste 48 Este 0 -- -- 61
2019-07-31 21:00:00 26.2 24 Este 42 Sudeste 0 -- -- 56
2019-07-31 20:00:00 28.4 21 Sudeste 44 Este 0 -- -- 50
2019-07-31 19:00:00 30.5 22 Sudeste 42 Este 0 -- -- 43
2019-07-31 18:00:00 31.1 24 Sudeste 44 Sudeste 0 -- -- 38
2019-07-31 17:00:00 31.5 23 Sudeste 41 Sudeste 0 -- -- 35
2019-07-31 16:00:00 31.3 23 Sudeste 47 Sudeste 0 -- -- 36
2019-07-31 15:00:00 30.1 22 Sudeste 43 Sudeste 0 -- -- 38
2019-07-31 14:00:00 28.8 24 Sudeste 46 Sudeste 0 -- -- 40
2019-07-31 13:00:00 27.5 22 Sudeste 48 Sudeste 0 -- -- 44
2019-07-31 12:00:00 25.9 27 Sudeste 49 Sudeste 0 -- -- 47
2019-07-31 11:00:00 24 26 Sudeste 50 Sudeste 0 -- -- 56
2019-07-31 10:00:00 22 26 Sudeste 53 Sudeste 0 -- -- 69
2019-07-31 09:00:00 20.4 25 Sudeste 45 Este 0 -- -- 76
2019-07-31 08:00:00 19.5 25 Este 43 Este 0 -- -- 77
2019-07-31 07:00:00 20 24 Sudeste 44 Este 0 -- -- 76
2019-07-31 06:00:00 19.9 24 Sudeste 47 Este 0 -- -- 77
2019-07-31 05:00:00 20.1 24 Sudeste 49 Sudeste 0 -- -- 75
2019-07-31 04:00:00 20.4 28 Sudeste 49 Sudeste 0 -- -- 67
2019-07-31 03:00:00 21.3 21 Este 37 Este 0 -- -- 61
2019-07-31 02:00:00 22 18 Este 49 Este 0 -- -- 57
2019-07-31 01:00:00 22.7 18 Este 35 Este 0 -- -- 63
2019-07-31 00:00:00 24.7 20 Sudeste 31 Sudeste 0 -- -- 60
2019-07-30 23:00:00 27 13 Este 24 Este 0 -- -- 46
2019-07-30 22:00:00 28.2 4 Nordeste 12 Nordeste 0 -- -- 21
2019-07-30 21:00:00 30.1 7 Norte 14 Norte 0 -- -- 20
2019-07-30 20:00:00 31.5 5 Noroeste 15 Oeste 0 -- -- 19
2019-07-30 19:00:00 33.2 5 Oeste 20 Noroeste 0 -- -- 18
2019-07-30 18:00:00 33.5 6 Oeste 25 Noroeste 0 -- -- 20
2019-07-30 17:00:00 33.6 11 Noroeste 33 Noroeste 0 -- -- 18
2019-07-30 16:00:00 33.4 7 Oeste 23 Sudoeste 0 -- -- 20
2019-07-30 15:00:00 32.3 6 Sudoeste 23 Norte 0 -- -- 22
2019-07-30 14:00:00 31.8 5 Oeste 23 Oeste 0 -- -- 24
2019-07-30 13:00:00 30 5 Norte 13 Oeste 0 -- -- 26
2019-07-30 12:00:00 29.1 3 Oeste 9 Noroeste 0 -- -- 24
2019-07-30 11:00:00 26.2 4 Sudeste 10 Oeste 0 -- -- 27
2019-07-30 10:00:00 24.1 3 Norte 11 Noroeste 0 -- -- 30
2019-07-30 09:00:00 19.9 2 Sudoeste 8 Norte 0 -- -- 41
2019-07-30 08:00:00 17.1 2 Noroeste 10 Norte 0 -- -- 42
2019-07-30 07:00:00 17.3 3 Norte 8 Norte 0 -- -- 39
2019-07-30 06:00:00 18 0 Calma 7 Noroeste 0 -- -- 37
2019-07-30 05:00:00 19.6 2 Nordeste 9 Norte 0 -- -- 35
2019-07-30 04:00:00 20.7 3 Norte 10 Norte 0 -- -- 33
2019-07-30 03:00:00 21.7 3 Norte 9 Norte 0 -- -- 31
2019-07-30 02:00:00 23 4 Norte 13 Noroeste 0 -- -- 30
2019-07-30 01:00:00 24.2 5 Noroeste 19 Noroeste 0 -- -- 28
2019-07-30 00:00:00 24.8 5 Norte 10 Noroeste 0 -- -- 29
2019-07-29 23:00:00 25.8 3 Norte 7 Norte 0 -- -- 22
2019-07-29 22:00:00 27.9 3 Noroeste 21 Oeste 0 -- -- 20
2019-07-29 21:00:00 30.3 9 Oeste 24 Oeste 0 -- -- 18
2019-07-29 20:00:00 32 12 Oeste 28 Oeste 0 -- -- 17
2019-07-29 19:00:00 33.8 12 Noroeste 34 Oeste 0 -- -- 17
2019-07-29 18:00:00 33.4 13 Sudoeste 28 Sudoeste 0 -- -- 22
2019-07-29 17:00:00 33.8 14 Sudoeste 39 Oeste 0 -- -- 24
2019-07-29 16:00:00 33.1 8 Oeste 30 Oeste 0 -- -- 26
2019-07-29 15:00:00 32.6 10 Oeste 26 Sudoeste 0 -- -- 28
2019-07-29 14:00:00 31.4 10 Oeste 26 Oeste 0 -- -- 30
2019-07-29 13:00:00 29.5 8 Sudoeste 21 Sudoeste 0 -- -- 31
2019-07-29 12:00:00 28.9 5 Oeste 13 Sudoeste 0 -- -- 33
2019-07-29 11:00:00 25.7 5 Sudoeste 12 Sudeste 0 -- -- 37
2019-07-29 10:00:00 23 4 Sur 10 Sur 0 -- -- 42
2019-07-29 09:00:00 20.6 5 Sudeste 10 Sur 0 -- -- 48
2019-07-29 08:00:00 18.4 0 Calma 13 Este 0 -- -- 49
2019-07-29 07:00:00 17.6 2 Este 5 Este 0 -- -- 50
2019-07-29 06:00:00 17.6 3 Nordeste 11 Norte 0 -- -- 45
2019-07-29 05:00:00 18.1 6 Nordeste 11 Nordeste 0 -- -- 43
2019-07-29 04:00:00 19.2 2 Nordeste 4 Este 0 -- -- 40
2019-07-29 03:00:00 19.6 0 Calma 4 Nordeste 0 -- -- 39
2019-07-29 02:00:00 20.6 3 Nordeste 11 Nordeste 0 -- -- 37
2019-07-29 01:00:00 20.9 5 Nordeste 10 Este 0 -- -- 36
2019-07-29 00:00:00 22.1 5 Nordeste 11 Nordeste 0 -- -- 34
2019-07-28 23:00:00 24.2 5 Nordeste 8 Este 0 -- -- 30
2019-07-28 22:00:00 25.9 2 Noroeste 10 Noroeste 0 -- -- 29
2019-07-28 21:00:00 27.6 4 Noroeste 13 Noroeste 0 -- -- 28
2019-07-28 20:00:00 28.9 5 Noroeste 17 Norte 0 -- -- 27
2019-07-28 19:00:00 30.6 5 Oeste 19 Oeste 0 -- -- 25
2019-07-28 18:00:00 30.6 6 Oeste 19 Oeste 0 -- -- 25
2019-07-28 17:00:00 30.5 7 Norte 40 Noroeste 0 -- -- 26
2019-07-28 16:00:00 30.3 9 Noroeste 23 Oeste 0 -- -- 28
2019-07-28 15:00:00 29.8 5 Noroeste 23 Oeste 0 -- -- 28
2019-07-28 14:00:00 28.4 6 Norte 19 Oeste 0 -- -- 32
2019-07-28 13:00:00 27.3 5 Noroeste 21 Oeste 0 -- -- 33
2019-07-28 12:00:00 26 9 Noroeste 17 Nordeste 0 -- -- 35
2019-07-28 11:00:00 24.2 5 Norte 15 Norte 0 -- -- 37
2019-07-28 10:00:00 21.7 4 Norte 14 Norte 0 -- -- 44
2019-07-28 09:00:00 18 7 Nordeste 15 Norte 0 -- -- 54
2019-07-28 08:00:00 14.9 2 Sur 12 Norte 0 -- -- 66
2019-07-28 07:00:00 15.8 5 Norte 11 Norte 0 -- -- 63
2019-07-28 06:00:00 16 2 Sudoeste 16 Nordeste 0 -- -- 60
2019-07-28 05:00:00 17.9 7 Norte 14 Nordeste 0 -- -- 57
2019-07-28 04:00:00 17.3 4 Nordeste 8 Nordeste 0 -- -- 56
2019-07-28 03:00:00 18.5 0 Calma 4 Norte 0 -- -- 55
2019-07-28 02:00:00 19.8 2 Noroeste 10 Noroeste 0 -- -- 56
2019-07-28 01:00:00 20.8 3 Norte 14 Noroeste 0 -- -- 52
2019-07-28 00:00:00 21.7 6 Noroeste 14 Oeste 0 -- -- 50
2019-07-27 23:00:00 22.8 8 Noroeste 25 Noroeste 0 -- -- 47
2019-07-26 12:00:00 -- -- -- -- -- -- -- -- --
2019-07-26 11:00:00 26.2 5 Sudoeste 13 Sudoeste 0 -- -- 43
2019-07-26 10:00:00 23 3 Sur 6 Sudoeste 0 -- -- 47
2019-07-26 09:00:00 21.9 2 Sur 7 Sur 0 -- -- 49
2019-07-26 08:00:00 21.7 4 Sur 6 Sur 0 -- -- 47
2019-07-26 07:00:00 21.7 0 Calma 5 Sur 0 -- -- 47
2019-07-26 06:00:00 21.4 0 Calma 6 Nordeste 0 -- -- 46
2019-07-26 05:00:00 21.6 0 Calma 8 Nordeste 0 -- -- 46
2019-07-26 04:00:00 22.7 3 Sudeste 7 Sudoeste 0 -- -- 44
2019-07-26 03:00:00 23.6 4 Sur 11 Nordeste 0 -- -- 41
2019-07-26 02:00:00 25.3 5 Nordeste 12 Nordeste 0 -- -- 38
2019-07-26 01:00:00 27.2 3 Norte 10 Este 0 -- -- 35
2019-07-26 00:00:00 28.6 5 Sudeste 23 Sur 0 -- -- 33
2019-07-25 23:00:00 29.5 14 Sudeste 28 Este 0 -- -- 31
2019-07-25 22:00:00 31.2 4 Nordeste 15 Sudeste 0 -- -- 30
2019-07-25 21:00:00 33.1 10 Sudeste 27 Sudeste 0 -- -- 23
2019-07-25 20:00:00 34.7 13 Sur 25 Sudeste 0 -- -- 21
2019-07-25 19:00:00 35.6 9 Sudoeste 24 Sudoeste 0 -- -- 23
2019-07-25 18:00:00 36.4 7 Sudoeste 21 Sudoeste 0 -- -- 25
2019-07-25 17:00:00 36.1 8 Sur 24 Sur 0 -- -- 24
2019-07-25 16:00:00 36.7 4 Este 32 Sudoeste 0 -- -- 24
2019-07-25 15:00:00 35.5 8 Sudoeste 22 Oeste 0 -- -- 26
2019-07-25 14:00:00 34.6 7 Oeste 22 Oeste 0 -- -- 26
2019-07-25 13:00:00 33.3 6 Sudoeste 16 Sur 0 -- -- 27
2019-07-25 12:00:00 31.1 5 Sudeste 13 Sur 0 -- -- 32
2019-07-25 11:00:00 28.8 5 Sur 14 Sur 0 -- -- 36
2019-07-25 10:00:00 26.6 9 Sudeste 15 Sudeste 0 -- -- 39
2019-07-25 09:00:00 24.1 10 Sudeste 22 Sudeste 0 -- -- 41
2019-07-25 08:00:00 22.3 12 Sudeste 25 Sudeste 0 -- -- 43
2019-07-25 07:00:00 22.1 12 Sudeste 26 Este 0 -- -- 43
2019-07-25 06:00:00 22.6 13 Sudeste 26 Este 0 -- -- 41
2019-07-25 05:00:00 23.4 15 Sudeste 31 Sudeste 0 -- -- 38
2019-07-25 04:00:00 24.4 18 Sudeste 37 Sudeste 0 -- -- 36
2019-07-25 03:00:00 25.1 18 Sudeste 41 Sudeste 0 -- -- 35
2019-07-25 02:00:00 26.1 18 Sudeste 44 Este 0 -- -- 33
2019-07-25 01:00:00 26.8 19 Sudeste 39 Este 0 -- -- 31
2019-07-25 00:00:00 27.8 22 Sudeste 41 Sudeste 0 -- -- 29
2019-07-24 23:00:00 29.2 21 Sudeste 41 Sudeste 0 -- -- 26
2019-07-24 22:00:00 30.8 20 Sudeste 41 Sudeste 0 -- -- 24
2019-07-24 21:00:00 33 19 Sudeste 37 Sudeste 0 -- -- 22
2019-07-24 20:00:00 34.9 19 Sudeste 37 Sudeste 0 -- -- 20
2019-07-24 19:00:00 36.2 19 Sudeste 34 Sudeste 0 -- -- 19
2019-07-24 18:00:00 36.5 18 Sudeste 34 Este 0 -- -- 19
2019-07-24 17:00:00 36.6 16 Sudeste 38 Sudeste 0 -- -- 18
2019-07-24 16:00:00 36.5 17 Sudeste 33 Sudeste 0 -- -- 18
2019-07-24 15:00:00 35.5 17 Sudeste 34 Sudeste 0 -- -- 19
2019-07-24 14:00:00 34.6 19 Sudeste 39 Sudeste 0 -- -- 20
2019-07-24 13:00:00 33 19 Sudeste 42 Sudeste 0 -- -- 22
2019-07-24 12:00:00 31.6 17 Sudeste 34 Sudeste 0 -- -- 23
2019-07-24 11:00:00 29.5 19 Sudeste 33 Sudeste 0 -- -- 25
2019-07-24 10:00:00 27.3 19 Sudeste 36 Este 0 -- -- 28
2019-07-24 09:00:00 24.8 18 Sudeste 30 Sudeste 0 -- -- 33
2019-07-24 08:00:00 23.2 18 Sudeste 30 Este 0 -- -- 37
2019-07-24 07:00:00 23.3 17 Sudeste 29 Este 0 -- -- 37
2019-07-24 06:00:00 23.9 18 Este 30 Este 0 -- -- 38
2019-07-24 05:00:00 24.2 15 Este 28 Este 0 -- -- 39
2019-07-24 04:00:00 24.5 9 Este 22 Este 0 -- -- 41
2019-07-24 03:00:00 24.4 7 Nordeste 16 Nordeste 0 -- -- 42
2019-07-24 02:00:00 25.3 5 Norte 17 Sudeste 0 -- -- 41
2019-07-24 01:00:00 26.4 8 Norte 31 Sudeste 0 -- -- 34
2019-07-24 00:00:00 27 15 Sudeste 27 Este 0 -- -- 29
2019-07-23 23:00:00 26.6 10 Este 21 Este 0 -- -- 38
2019-07-23 22:00:00 25.5 5 Este 39 Sudoeste 1.2 -- -- 48
2019-07-23 21:00:00 31.7 9 Sudoeste 33 Sudeste 0 -- -- 22
2019-07-23 20:00:00 32.1 15 Sudeste 38 Sudeste 0.2 -- -- 21
2019-07-23 19:00:00 33.9 21 Sudeste 42 Sudeste 0 -- -- 19
2019-07-23 18:00:00 35.2 22 Sudeste 46 Sudeste 0 -- -- 18
2019-07-23 17:00:00 36.1 25 Sudeste 43 Sudeste 0 -- -- 18
2019-07-23 16:00:00 34.7 22 Sudeste 44 Este 0 -- -- 19
2019-07-23 15:00:00 34.8 21 Sudeste 40 Sudeste 0 -- -- 19
2019-07-23 14:00:00 34.4 21 Sudeste 44 Sudeste 0 -- -- 21
2019-07-23 13:00:00 32.6 22 Sudeste 48 Sudeste 0 -- -- 23
2019-07-23 12:00:00 29.9 23 Sudeste 41 Sudeste 0 -- -- 26
2019-07-23 11:00:00 28.3 19 Sudeste 36 Sudeste 0 -- -- 28
2019-07-23 10:00:00 26.6 17 Sudeste 37 Este 0 -- -- 27
2019-07-23 09:00:00 24.2 18 Este 36 Este 0 -- -- 34
2019-07-23 08:00:00 23.2 22 Sudeste 39 Sudeste 0 -- -- 35
2019-07-23 07:00:00 22.6 24 Sudeste 41 Este 0 -- -- 38
2019-07-23 06:00:00 22.5 22 Sudeste 41 Este 0 -- -- 42
2019-07-23 05:00:00 22.8 18 Sudeste 38 Este 0 -- -- 43
2019-07-23 04:00:00 23.4 20 Sudeste 40 Este 0 -- -- 42
2019-07-23 03:00:00 23.9 24 Sudeste 43 Sudeste 0 -- -- 42
2019-07-23 02:00:00 24.5 24 Sudeste 43 Este 0 -- -- 43
2019-07-23 01:00:00 25.1 25 Sudeste 43 Sudeste 0 -- -- 43
2019-07-23 00:00:00 26.1 21 Sudeste 40 Sudeste 0 -- -- 43
2019-07-22 23:00:00 27.6 19 Sudeste 38 Sudeste 0 -- -- 40
2019-07-22 22:00:00 30.6 19 Sudeste 41 Sudeste 0 -- -- 18
2019-07-22 21:00:00 32.5 22 Sudeste 44 Sudeste 0 -- -- 17
2019-07-22 20:00:00 34 26 Sudeste 49 Sudeste 0 -- -- 17
2019-07-22 19:00:00 35 28 Sudeste 53 Sudeste 0 -- -- 18
2019-07-22 18:00:00 35.6 23 Sudeste 50 Sudeste 0 -- -- 21
2019-07-22 17:00:00 35.2 27 Sudeste 48 Sudeste 0 -- -- 22
2019-07-22 16:00:00 34.7 23 Sudeste 51 Sudeste 0 -- -- 22
2019-07-22 15:00:00 34.1 22 Sudeste 46 Sudeste 0 -- -- 23
2019-07-22 14:00:00 32.5 19 Sudeste 39 Sudeste 0 -- -- 27
2019-07-22 13:00:00 31 22 Sudeste 40 Sudeste 0 -- -- 28
2019-07-22 12:00:00 29.6 22 Sudeste 43 Sudeste 0 -- -- 29
2019-07-22 11:00:00 27.3 23 Sudeste 41 Sudeste 0 -- -- 34
2019-07-22 10:00:00 25.6 19 Sudeste 42 Sudeste 0 -- -- 37
2019-07-22 09:00:00 22.8 19 Sudeste 33 Sudeste 0 -- -- 45
2019-07-22 08:00:00 21.8 21 Sudeste 40 Sudeste 0 -- -- 50
2019-07-22 07:00:00 21.7 21 Sudeste 39 Este 0 -- -- 50
2019-07-22 06:00:00 21.7 21 Sudeste 39 Sudeste 0 -- -- 50
2019-07-22 05:00:00 21.9 21 Sudeste 35 Este 0 -- -- 48
2019-07-22 04:00:00 22.3 22 Este 36 Sudeste 0 -- -- 44
2019-07-22 03:00:00 23.1 19 Sudeste 39 Este 0 -- -- 39
2019-07-22 02:00:00 23.9 22 Sudeste 42 Sudeste 0 -- -- 39
2019-07-22 01:00:00 24.6 20 Sudeste 39 Sudeste 0 -- -- 44
2019-07-22 00:00:00 25.9 20 Sudeste 37 Sudeste 0 -- -- 42
2019-07-21 23:00:00 27.2 24 Sudeste 39 Este 0 -- -- 38
2019-07-21 22:00:00 28.8 23 Sudeste 41 Sudeste 0 -- -- 37
2019-07-21 21:00:00 31 19 Sudeste 39 Este 0 -- -- 36
2019-07-21 20:00:00 33.1 21 Sudeste 37 Sudeste 0 -- -- 34
2019-07-21 19:00:00 34.8 18 Sudeste 37 Sudeste 0 -- -- 30
2019-07-21 18:00:00 35.3 20 Sudeste 35 Sudeste 0 -- -- 27
2019-07-21 17:00:00 35.6 18 Sudeste 33 Sudeste 0 -- -- 26
2019-07-21 16:00:00 35.1 17 Sudeste 33 Sudeste 0 -- -- 26
2019-07-21 15:00:00 34.4 16 Sudeste 33 Sudeste 0 -- -- 26
2019-07-21 14:00:00 33.2 17 Sudeste 31 Sudeste 0 -- -- 28
2019-07-21 13:00:00 32 17 Sudeste 34 Sudeste 0 -- -- 30
2019-07-21 12:00:00 30.6 18 Sudeste 34 Sur 0 -- -- 32
2019-07-21 11:00:00 28.5 21 Sudeste 35 Sudeste 0 -- -- 35
2019-07-21 10:00:00 26.3 22 Sudeste 37 Este 0 -- -- 38
2019-07-21 09:00:00 24.1 16 Sudeste 35 Este 0 -- -- 46
2019-07-21 08:00:00 22.3 19 Este 35 Este 0 -- -- 54
2019-07-21 07:00:00 22.1 22 Este 35 Sudeste 0 -- -- 55
2019-07-21 06:00:00 22.3 19 Sudeste 39 Este 0 -- -- 57
2019-07-21 05:00:00 23 20 Sudeste 38 Sudeste 0 -- -- 52
2019-07-21 04:00:00 23.4 22 Sudeste 42 Este 0 -- -- 52
2019-07-21 03:00:00 24 23 Sudeste 52 Sudeste 0 -- -- 50
2019-07-21 02:00:00 25 23 Sudeste 42 Sudeste 0 -- -- 40
2019-07-21 01:00:00 25.7 21 Sudeste 43 Sudeste 0 -- -- 43
2019-07-21 00:00:00 26.3 24 Sudeste 44 Sudeste 0 -- -- 48
2019-07-20 23:00:00 28.2 23 Sudeste 40 Sudeste 0 -- -- 43
2019-07-20 22:00:00 30.3 22 Sudeste 43 Sudeste 0 -- -- 38
2019-07-20 21:00:00 33.7 21 Sudeste 35 Sudeste 0 -- -- 32
2019-07-20 20:00:00 35.9 8 Sudeste 22 Este 0 -- -- 20
2019-07-20 19:00:00 36.7 10 Sur 23 Sudeste 0 -- -- 19
2019-07-20 18:00:00 37.1 9 Sudeste 21 Sur 0 -- -- 19
2019-07-20 17:00:00 37 8 Sudeste 22 Sur 0 -- -- 20
2019-07-20 16:00:00 36.4 10 Sudeste 25 Sur 0 -- -- 22
2019-07-20 15:00:00 35.6 8 Sur 24 Sur 0 -- -- 24
2019-07-20 14:00:00 34.3 12 Sur 25 Sur 0 -- -- 25
2019-07-20 13:00:00 32.8 12 Sur 24 Sur 0 -- -- 28
2019-07-20 12:00:00 30.8 14 Sur 31 Sur 0 -- -- 32
2019-07-20 11:00:00 28.3 14 Sudeste 28 Sudeste 0 -- -- 37
2019-07-20 10:00:00 25.2 19 Sudeste 33 Sudeste 0 -- -- 44
2019-07-20 09:00:00 22.7 17 Sudeste 35 Sudeste 0 -- -- 52
2019-07-20 08:00:00 20.8 18 Sudeste 40 Este 0 -- -- 61
2019-07-20 07:00:00 20.9 20 Sudeste 36 Sudeste 0 -- -- 60
2019-07-20 06:00:00 21.3 20 Sudeste 37 Este 0 -- -- 59
2019-07-20 05:00:00 21.8 20 Sudeste 41 Este 0 -- -- 58
2019-07-20 04:00:00 22.4 23 Sudeste 42 Sudeste 0 -- -- 56
2019-07-20 03:00:00 23.1 24 Sudeste 44 Sudeste 0 -- -- 55
2019-07-20 02:00:00 24.4 23 Sudeste 44 Sudeste 0 -- -- 45
2019-07-20 01:00:00 25.4 25 Sudeste 43 Sudeste 0 -- -- 41
2019-07-20 00:00:00 26.8 21 Sudeste 42 Sudeste 0 -- -- 35
2019-07-19 23:00:00 28 18 Sudeste 34 Sudeste 0 -- -- 27
2019-07-19 22:00:00 30 16 Sudeste 31 Sudeste 0 -- -- 24
2019-07-19 21:00:00 32.5 18 Sudeste 31 Sur 0 -- -- 18
2019-07-19 20:00:00 34.2 17 Sudeste 30 Sudeste 0 -- -- 17
2019-07-19 19:00:00 35.2 10 Sudeste 28 Sudeste 0 -- -- 17
2019-07-19 18:00:00 35.6 15 Sudeste 31 Sudeste 0 -- -- 19
2019-07-19 17:00:00 35.6 13 Sudeste 31 Sur 0 -- -- 19
2019-07-19 16:00:00 35.4 12 Sudeste 31 Sudeste 0 -- -- 20
2019-07-19 15:00:00 35 12 Sur 27 Sudeste 0 -- -- 22
2019-07-19 14:00:00 34 13 Sur 33 Sudeste 0 -- -- 24
2019-07-19 13:00:00 32.2 15 Sudeste 28 Sudeste 0 -- -- 28
2019-07-19 12:00:00 29.6 16 Sudeste 31 Sudeste 0 -- -- 34
2019-07-19 11:00:00 27.2 19 Sudeste 31 Sudeste 0 -- -- 38
2019-07-19 10:00:00 25.1 17 Sudeste 35 Sudeste 0 -- -- 42
2019-07-19 09:00:00 22.7 17 Sudeste 32 Sudeste 0 -- -- 46
2019-07-19 08:00:00 21.2 15 Sudeste 32 Este 0 -- -- 50
2019-07-19 07:00:00 21 18 Este 30 Este 0 -- -- 51
2019-07-19 06:00:00 21 18 Este 30 Este 0 -- -- 52
2019-07-19 05:00:00 21.3 17 Este 32 Este 0 -- -- 52
2019-07-19 04:00:00 21.7 18 Este 33 Este 0 -- -- 54
2019-07-19 03:00:00 22.4 21 Este 35 Este 0 -- -- 52
2019-07-19 02:00:00 24.2 17 Sudeste 30 Este 0 -- -- 49
2019-07-19 01:00:00 25.9 15 Sudeste 26 Este 0 -- -- 45
2019-07-19 00:00:00 25.6 7 Nordeste 10 Nordeste 0 -- -- 29